sensor_id;sensor_type;location;lat;lon;timestamp;temperature;humidity
15717;DHT22;7960;50.908;4.204;2023-03-01T00:00:13;1.60;90.70
15717;DHT22;7960;50.908;4.204;2023-03-01T00:02:41;1.50;90.70
15717;DHT22;7960;50.908;4.204;2023-03-01T00:05:08;1.40;90.80
15717;DHT22;7960;50.908;4.204;2023-03-01T00:07:35;1.40;90.90
15717;DHT22;7960;50.908;4.204;2023-03-01T00:10:02;1.40;91.00
15717;DHT22;7960;50.908;4.204;2023-03-01T00:12:29;1.40;91.10
15717;DHT22;7960;50.908;4.204;2023-03-01T00:14:57;1.40;91.10
15717;DHT22;7960;50.908;4.204;2023-03-01T00:17:24;1.40;91.10
15717;DHT22;7960;50.908;4.204;2023-03-01T00:19:52;1.50;91.20
15717;DHT22;7960;50.908;4.204;2023-03-01T00:22:19;1.50;91.20
15717;DHT22;7960;50.908;4.204;2023-03-01T00:24:46;1.60;91.30
15717;DHT22;7960;50.908;4.204;2023-03-01T00:27:13;1.50;91.20
15717;DHT22;7960;50.908;4.204;2023-03-01T00:29:40;1.40;91.20
15717;DHT22;7960;50.908;4.204;2023-03-01T00:32:06;1.50;91.30
15717;DHT22;7960;50.908;4.204;2023-03-01T00:34:33;1.50;91.30
15717;DHT22;7960;50.908;4.204;2023-03-01T00:37:01;1.50;91.30
15717;DHT22;7960;50.908;4.204;2023-03-01T00:39:31;1.20;91.60
15717;DHT22;7960;50.908;4.204;2023-03-01T00:41:59;1.20;91.50
15717;DHT22;7960;50.908;4.204;2023-03-01T00:44:26;1.30;91.60
15717;DHT22;7960;50.908;4.204;2023-03-01T00:46:53;1.40;91.70
15717;DHT22;7960;50.908;4.204;2023-03-01T00:49:20;1.40;91.60
15717;DHT22;7960;50.908;4.204;2023-03-01T00:51:49;1.40;91.70
15717;DHT22;7960;50.908;4.204;2023-03-01T00:54:17;1.20;91.60
15717;DHT22;7960;50.908;4.204;2023-03-01T00:56:44;1.10;91.70
15717;DHT22;7960;50.908;4.204;2023-03-01T00:59:11;1.20;91.90
15717;DHT22;7960;50.908;4.204;2023-03-01T01:01:38;1.20;92.00
15717;DHT22;7960;50.908;4.204;2023-03-01T01:04:08;1.10;91.90
15717;DHT22;7960;50.908;4.204;2023-03-01T01:06:37;1.20;92.10
15717;DHT22;7960;50.908;4.204;2023-03-01T01:09:07;1.10;92.00
15717;DHT22;7960;50.908;4.204;2023-03-01T01:11:36;0.90;92.00
15717;DHT22;7960;50.908;4.204;2023-03-01T01:14:03;1.00;92.30
15717;DHT22;7960;50.908;4.204;2023-03-01T01:16:30;1.00;92.40
15717;DHT22;7960;50.908;4.204;2023-03-01T01:18:57;0.90;92.50
15717;DHT22;7960;50.908;4.204;2023-03-01T01:21:24;1.00;92.90
15717;DHT22;7960;50.908;4.204;2023-03-01T01:23:52;1.00;92.60
15717;DHT22;7960;50.908;4.204;2023-03-01T01:26:21;0.90;92.60
15717;DHT22;7960;50.908;4.204;2023-03-01T01:28:50;0.90;92.80
15717;DHT22;7960;50.908;4.204;2023-03-01T01:31:17;1.00;92.80
15717;DHT22;7960;50.908;4.204;2023-03-01T01:33:45;1.00;92.80
15717;DHT22;7960;50.908;4.204;2023-03-01T01:36:12;0.90;92.70
15717;DHT22;7960;50.908;4.204;2023-03-01T01:38:39;0.90;93.00
15717;DHT22;7960;50.908;4.204;2023-03-01T01:41:09;1.00;92.80
15717;DHT22;7960;50.908;4.204;2023-03-01T01:43:39;1.00;92.80
15717;DHT22;7960;50.908;4.204;2023-03-01T01:46:16;1.00;92.80
15717;DHT22;7960;50.908;4.204;2023-03-01T01:48:47;1.00;92.80
15717;DHT22;7960;50.908;4.204;2023-03-01T01:51:18;0.90;92.90
15717;DHT22;7960;50.908;4.204;2023-03-01T01:53:48;0.80;93.00
15717;DHT22;7960;50.908;4.204;2023-03-01T01:56:17;0.80;93.10
15717;DHT22;7960;50.908;4.204;2023-03-01T01:58:45;0.80;93.20
15717;DHT22;7960;50.908;4.204;2023-03-01T02:01:14;0.70;93.30
15717;DHT22;7960;50.908;4.204;2023-03-01T02:03:43;0.80;93.50
15717;DHT22;7960;50.908;4.204;2023-03-01T02:06:15;0.70;93.40
15717;DHT22;7960;50.908;4.204;2023-03-01T02:08:44;0.70;93.50
15717;DHT22;7960;50.908;4.204;2023-03-01T02:11:13;0.60;93.50
15717;DHT22;7960;50.908;4.204;2023-03-01T02:13:41;0.70;93.70
15717;DHT22;7960;50.908;4.204;2023-03-01T02:16:10;0.60;93.70
15717;DHT22;7960;50.908;4.204;2023-03-01T02:18:39;0.60;93.80
15717;DHT22;7960;50.908;4.204;2023-03-01T02:21:17;0.60;93.90
15717;DHT22;7960;50.908;4.204;2023-03-01T02:23:47;0.60;93.90
15717;DHT22;7960;50.908;4.204;2023-03-01T02:26:19;0.40;93.90
15717;DHT22;7960;50.908;4.204;2023-03-01T02:28:48;0.50;94.10
15717;DHT22;7960;50.908;4.204;2023-03-01T02:31:17;0.60;94.20
15717;DHT22;7960;50.908;4.204;2023-03-01T02:34:03;0.60;94.20
15717;DHT22;7960;50.908;4.204;2023-03-01T02:36:34;0.60;94.20
15717;DHT22;7960;50.908;4.204;2023-03-01T02:39:04;0.60;94.20
15717;DHT22;7960;50.908;4.204;2023-03-01T02:41:35;0.50;94.10
15717;DHT22;7960;50.908;4.204;2023-03-01T02:44:07;0.50;94.20
15717;DHT22;7960;50.908;4.204;2023-03-01T02:46:42;0.50;94.30
15717;DHT22;7960;50.908;4.204;2023-03-01T02:49:22;0.50;94.40
15717;DHT22;7960;50.908;4.204;2023-03-01T02:54:48;0.50;94.50
15717;DHT22;7960;50.908;4.204;2023-03-01T02:57:18;0.50;94.50
15717;DHT22;7960;50.908;4.204;2023-03-01T02:59:46;0.50;94.50
15717;DHT22;7960;50.908;4.204;2023-03-01T03:02:20;0.40;94.80
15717;DHT22;7960;50.908;4.204;2023-03-01T03:05:02;0.40;94.60
15717;DHT22;7960;50.908;4.204;2023-03-01T03:07:28;0.30;94.60
15717;DHT22;7960;50.908;4.204;2023-03-01T03:09:55;0.40;94.70
15717;DHT22;7960;50.908;4.204;2023-03-01T03:12:22;0.50;94.80
15717;DHT22;7960;50.908;4.204;2023-03-01T03:14:50;0.50;94.80
15717;DHT22;7960;50.908;4.204;2023-03-01T03:17:17;0.50;94.80
15717;DHT22;7960;50.908;4.204;2023-03-01T03:19:44;0.40;94.80
15717;DHT22;7960;50.908;4.204;2023-03-01T03:22:11;0.40;94.90
15717;DHT22;7960;50.908;4.204;2023-03-01T03:24:38;0.30;94.90
15717;DHT22;7960;50.908;4.204;2023-03-01T03:27:05;0.30;95.00
15717;DHT22;7960;50.908;4.204;2023-03-01T03:29:33;0.40;95.10
15717;DHT22;7960;50.908;4.204;2023-03-01T03:32:02;0.40;95.10
15717;DHT22;7960;50.908;4.204;2023-03-01T03:34:28;0.30;95.10
15717;DHT22;7960;50.908;4.204;2023-03-01T03:36:56;0.30;95.10
15717;DHT22;7960;50.908;4.204;2023-03-01T03:39:25;0.20;95.20
15717;DHT22;7960;50.908;4.204;2023-03-01T03:41:51;0.20;95.50
15717;DHT22;7960;50.908;4.204;2023-03-01T03:44:18;0.20;95.30
15717;DHT22;7960;50.908;4.204;2023-03-01T03:46:45;0.20;95.40
15717;DHT22;7960;50.908;4.204;2023-03-01T03:49:13;0.10;95.40
15717;DHT22;7960;50.908;4.204;2023-03-01T03:51:40;0.00;95.50
15717;DHT22;7960;50.908;4.204;2023-03-01T03:54:07;0.00;95.60
15717;DHT22;7960;50.908;4.204;2023-03-01T03:56:34;0.00;95.70
15717;DHT22;7960;50.908;4.204;2023-03-01T03:59:00;-0.10;95.80
15717;DHT22;7960;50.908;4.204;2023-03-01T04:01:27;-0.10;95.90
15717;DHT22;7960;50.908;4.204;2023-03-01T04:03:54;-0.10;96.00
15717;DHT22;7960;50.908;4.204;2023-03-01T04:06:22;-0.20;95.90
15717;DHT22;7960;50.908;4.204;2023-03-01T04:08:49;-0.20;96.10
15717;DHT22;7960;50.908;4.204;2023-03-01T04:11:16;-0.20;96.20
15717;DHT22;7960;50.908;4.204;2023-03-01T04:13:54;-0.20;96.30
15717;DHT22;7960;50.908;4.204;2023-03-01T04:16:22;-0.20;96.40
15717;DHT22;7960;50.908;4.204;2023-03-01T04:18:49;-0.20;96.40
15717;DHT22;7960;50.908;4.204;2023-03-01T04:21:16;-0.20;96.70
15717;DHT22;7960;50.908;4.204;2023-03-01T04:23:44;-0.30;96.50
15717;DHT22;7960;50.908;4.204;2023-03-01T04:26:11;-0.30;96.50
15717;DHT22;7960;50.908;4.204;2023-03-01T04:28:39;-0.30;96.60
15717;DHT22;7960;50.908;4.204;2023-03-01T04:31:10;-0.30;96.70
15717;DHT22;7960;50.908;4.204;2023-03-01T04:33:42;-0.30;96.70
15717;DHT22;7960;50.908;4.204;2023-03-01T04:36:11;-0.30;96.80
15717;DHT22;7960;50.908;4.204;2023-03-01T04:38:39;-0.30;96.80
15717;DHT22;7960;50.908;4.204;2023-03-01T04:41:09;-0.30;96.80
15717;DHT22;7960;50.908;4.204;2023-03-01T04:43:37;-0.20;96.90
15717;DHT22;7960;50.908;4.204;2023-03-01T04:46:06;-0.30;96.90
15717;DHT22;7960;50.908;4.204;2023-03-01T04:48:35;-0.30;97.00
15717;DHT22;7960;50.908;4.204;2023-03-01T04:51:03;-0.20;97.10
15717;DHT22;7960;50.908;4.204;2023-03-01T04:53:30;-0.30;97.20
15717;DHT22;7960;50.908;4.204;2023-03-01T04:55:58;-0.30;97.10
15717;DHT22;7960;50.908;4.204;2023-03-01T04:58:27;-0.40;97.10
15717;DHT22;7960;50.908;4.204;2023-03-01T05:00:55;-0.40;97.20
15717;DHT22;7960;50.908;4.204;2023-03-01T05:03:22;-0.50;97.30
15717;DHT22;7960;50.908;4.204;2023-03-01T05:05:51;-0.50;97.40
15717;DHT22;7960;50.908;4.204;2023-03-01T05:08:18;-0.50;97.50
15717;DHT22;7960;50.908;4.204;2023-03-01T05:10:48;-0.50;97.60
15717;DHT22;7960;50.908;4.204;2023-03-01T05:13:15;-0.50;97.70
15717;DHT22;7960;50.908;4.204;2023-03-01T05:15:48;-0.60;97.70
15717;DHT22;7960;50.908;4.204;2023-03-01T05:18:15;-0.50;97.80
15717;DHT22;7960;50.908;4.204;2023-03-01T05:20:42;-0.60;97.80
15717;DHT22;7960;50.908;4.204;2023-03-01T05:23:10;-0.60;97.90
15717;DHT22;7960;50.908;4.204;2023-03-01T05:25:37;-0.50;98.10
15717;DHT22;7960;50.908;4.204;2023-03-01T05:28:07;-0.50;98.10
15717;DHT22;7960;50.908;4.204;2023-03-01T05:30:37;-0.50;98.10
15717;DHT22;7960;50.908;4.204;2023-03-01T05:33:07;-0.60;98.10
15717;DHT22;7960;50.908;4.204;2023-03-01T05:35:39;-0.50;98.20
15717;DHT22;7960;50.908;4.204;2023-03-01T05:38:06;-0.50;98.20
15717;DHT22;7960;50.908;4.204;2023-03-01T05:40:34;-0.50;98.30
15717;DHT22;7960;50.908;4.204;2023-03-01T05:43:01;-0.50;98.30
15717;DHT22;7960;50.908;4.204;2023-03-01T05:45:30;-0.60;98.20
15717;DHT22;7960;50.908;4.204;2023-03-01T05:47:58;-0.50;98.30
15717;DHT22;7960;50.908;4.204;2023-03-01T05:50:27;-0.50;98.40
15717;DHT22;7960;50.908;4.204;2023-03-01T05:52:58;-0.50;98.40
15717;DHT22;7960;50.908;4.204;2023-03-01T05:55:25;-0.50;98.70
15717;DHT22;7960;50.908;4.204;2023-03-01T05:57:51;-0.50;98.40
15717;DHT22;7960;50.908;4.204;2023-03-01T06:00:20;-0.50;98.50
15717;DHT22;7960;50.908;4.204;2023-03-01T06:02:48;-0.50;98.50
15717;DHT22;7960;50.908;4.204;2023-03-01T06:05:18;-0.60;98.50
15717;DHT22;7960;50.908;4.204;2023-03-01T06:07:46;-0.60;98.60
15717;DHT22;7960;50.908;4.204;2023-03-01T06:10:13;-0.60;98.60
15717;DHT22;7960;50.908;4.204;2023-03-01T06:12:41;-0.60;98.70
15717;DHT22;7960;50.908;4.204;2023-03-01T06:15:10;-0.60;98.70
15717;DHT22;7960;50.908;4.204;2023-03-01T06:17:40;-0.70;98.70
15717;DHT22;7960;50.908;4.204;2023-03-01T06:20:10;-0.60;98.80
15717;DHT22;7960;50.908;4.204;2023-03-01T06:22:38;-0.70;98.80
15717;DHT22;7960;50.908;4.204;2023-03-01T06:25:07;-0.70;98.90
15717;DHT22;7960;50.908;4.204;2023-03-01T06:27:34;-0.70;99.00
15717;DHT22;7960;50.908;4.204;2023-03-01T06:30:01;-0.60;99.00
15717;DHT22;7960;50.908;4.204;2023-03-01T06:32:28;-0.60;99.10
15717;DHT22;7960;50.908;4.204;2023-03-01T06:34:55;-0.50;99.00
15717;DHT22;7960;50.908;4.204;2023-03-01T06:37:24;-0.60;98.90
15717;DHT22;7960;50.908;4.204;2023-03-01T06:39:50;-0.70;98.90
15717;DHT22;7960;50.908;4.204;2023-03-01T06:42:19;-0.50;99.10
15717;DHT22;7960;50.908;4.204;2023-03-01T06:44:45;-0.50;99.10
15717;DHT22;7960;50.908;4.204;2023-03-01T06:47:12;-0.60;99.00
15717;DHT22;7960;50.908;4.204;2023-03-01T06:49:39;-0.60;99.00
15717;DHT22;7960;50.908;4.204;2023-03-01T06:52:06;-0.60;99.00
15717;DHT22;7960;50.908;4.204;2023-03-01T06:54:33;-0.60;99.00
15717;DHT22;7960;50.908;4.204;2023-03-01T06:56:59;-0.70;99.10
15717;DHT22;7960;50.908;4.204;2023-03-01T06:59:28;-0.60;99.30
15717;DHT22;7960;50.908;4.204;2023-03-01T07:01:55;-0.60;99.40
15717;DHT22;7960;50.908;4.204;2023-03-01T07:04:21;-0.50;99.40
15717;DHT22;7960;50.908;4.204;2023-03-01T07:06:48;-0.40;99.30
15717;DHT22;7960;50.908;4.204;2023-03-01T07:09:20;-0.50;99.20
15717;DHT22;7960;50.908;4.204;2023-03-01T07:11:47;-0.60;99.20
15717;DHT22;7960;50.908;4.204;2023-03-01T07:14:14;-0.80;99.20
15717;DHT22;7960;50.908;4.204;2023-03-01T07:16:42;-0.80;99.40
15717;DHT22;7960;50.908;4.204;2023-03-01T07:19:09;-0.90;99.50
15717;DHT22;7960;50.908;4.204;2023-03-01T07:21:36;-0.90;99.70
15717;DHT22;7960;50.908;4.204;2023-03-01T07:24:05;-0.90;99.90
15717;DHT22;7960;50.908;4.204;2023-03-01T07:26:32;-0.90;99.90
15717;DHT22;7960;50.908;4.204;2023-03-01T07:28:59;-0.90;99.90
15717;DHT22;7960;50.908;4.204;2023-03-01T07:31:26;-0.80;99.90
15717;DHT22;7960;50.908;4.204;2023-03-01T07:33:55;-0.80;99.90
15717;DHT22;7960;50.908;4.204;2023-03-01T07:36:23;-0.80;99.90
15717;DHT22;7960;50.908;4.204;2023-03-01T07:38:50;-0.90;99.90
15717;DHT22;7960;50.908;4.204;2023-03-01T07:41:17;-0.70;99.90
15717;DHT22;7960;50.908;4.204;2023-03-01T07:43:44;-0.70;99.90
15717;DHT22;7960;50.908;4.204;2023-03-01T07:46:11;-0.60;99.90
15717;DHT22;7960;50.908;4.204;2023-03-01T07:48:38;-0.40;99.90
15717;DHT22;7960;50.908;4.204;2023-03-01T07:51:07;-0.20;99.90
15717;DHT22;7960;50.908;4.204;2023-03-01T07:53:34;-0.20;99.90
15717;DHT22;7960;50.908;4.204;2023-03-01T07:56:03;-0.10;99.90
15717;DHT22;7960;50.908;4.204;2023-03-01T07:58:31;-0.10;99.90
15717;DHT22;7960;50.908;4.204;2023-03-01T08:01:01;0.10;99.90
15717;DHT22;7960;50.908;4.204;2023-03-01T08:03:27;0.10;99.90
15717;DHT22;7960;50.908;4.204;2023-03-01T08:05:54;0.00;99.90
15717;DHT22;7960;50.908;4.204;2023-03-01T08:08:22;0.00;99.90
15717;DHT22;7960;50.908;4.204;2023-03-01T08:10:50;0.00;99.90
15717;DHT22;7960;50.908;4.204;2023-03-01T08:13:16;0.10;99.90
15717;DHT22;7960;50.908;4.204;2023-03-01T08:15:47;0.30;99.90
15717;DHT22;7960;50.908;4.204;2023-03-01T08:18:15;0.40;99.90
15717;DHT22;7960;50.908;4.204;2023-03-01T08:20:41;0.50;99.90
15717;DHT22;7960;50.908;4.204;2023-03-01T08:23:08;0.50;99.90
15717;DHT22;7960;50.908;4.204;2023-03-01T08:25:37;0.70;99.90
15717;DHT22;7960;50.908;4.204;2023-03-01T08:28:04;0.80;99.90
15717;DHT22;7960;50.908;4.204;2023-03-01T08:30:31;0.90;99.90
15717;DHT22;7960;50.908;4.204;2023-03-01T08:32:58;1.00;99.90
15717;DHT22;7960;50.908;4.204;2023-03-01T08:35:25;1.10;99.80
15717;DHT22;7960;50.908;4.204;2023-03-01T08:37:52;1.10;99.70
15717;DHT22;7960;50.908;4.204;2023-03-01T08:40:19;1.10;99.30
15717;DHT22;7960;50.908;4.204;2023-03-01T08:42:47;1.20;99.30
15717;DHT22;7960;50.908;4.204;2023-03-01T08:45:14;1.20;99.20
15717;DHT22;7960;50.908;4.204;2023-03-01T08:47:43;1.40;99.10
15717;DHT22;7960;50.908;4.204;2023-03-01T08:50:11;1.50;99.10
15717;DHT22;7960;50.908;4.204;2023-03-01T08:52:37;1.70;99.00
15717;DHT22;7960;50.908;4.204;2023-03-01T08:55:05;1.90;98.90
15717;DHT22;7960;50.908;4.204;2023-03-01T08:57:32;2.00;98.50
15717;DHT22;7960;50.908;4.204;2023-03-01T09:00:00;2.20;98.40
15717;DHT22;7960;50.908;4.204;2023-03-01T09:02:28;2.30;98.10
15717;DHT22;7960;50.908;4.204;2023-03-01T09:04:55;2.50;98.10
15717;DHT22;7960;50.908;4.204;2023-03-01T09:07:22;2.70;97.80
15717;DHT22;7960;50.908;4.204;2023-03-01T09:09:53;2.80;97.30
15717;DHT22;7960;50.908;4.204;2023-03-01T09:12:20;2.80;96.80
15717;DHT22;7960;50.908;4.204;2023-03-01T09:14:47;3.00;96.60
15717;DHT22;7960;50.908;4.204;2023-03-01T09:17:15;3.10;96.20
15717;DHT22;7960;50.908;4.204;2023-03-01T09:19:42;3.20;95.70
15717;DHT22;7960;50.908;4.204;2023-03-01T09:22:09;3.50;95.60
15717;DHT22;7960;50.908;4.204;2023-03-01T09:24:36;3.50;95.20
15717;DHT22;7960;50.908;4.204;2023-03-01T09:27:03;3.70;95.00
15717;DHT22;7960;50.908;4.204;2023-03-01T09:29:34;4.00;94.70
15717;DHT22;7960;50.908;4.204;2023-03-01T09:32:01;4.10;94.40
15717;DHT22;7960;50.908;4.204;2023-03-01T09:34:30;4.20;93.90
15717;DHT22;7960;50.908;4.204;2023-03-01T09:36:57;4.20;93.40
15717;DHT22;7960;50.908;4.204;2023-03-01T09:39:27;4.30;93.40
15717;DHT22;7960;50.908;4.204;2023-03-01T09:41:58;4.40;92.90
15717;DHT22;7960;50.908;4.204;2023-03-01T09:44:31;4.60;92.80
15717;DHT22;7960;50.908;4.204;2023-03-01T09:47:01;4.70;92.40
15717;DHT22;7960;50.908;4.204;2023-03-01T09:49:32;4.80;92.30
15717;DHT22;7960;50.908;4.204;2023-03-01T09:52:04;4.90;92.10
15717;DHT22;7960;50.908;4.204;2023-03-01T09:54:36;4.90;91.90
15717;DHT22;7960;50.908;4.204;2023-03-01T09:57:14;5.00;91.40
15717;DHT22;7960;50.908;4.204;2023-03-01T10:00:00;5.10;91.20
15717;DHT22;7960;50.908;4.204;2023-03-01T10:02:38;5.20;91.00
15717;DHT22;7960;50.908;4.204;2023-03-01T10:05:19;5.30;90.80
15717;DHT22;7960;50.908;4.204;2023-03-01T10:07:55;5.50;90.50
15717;DHT22;7960;50.908;4.204;2023-03-01T10:10:27;5.60;90.10
15717;DHT22;7960;50.908;4.204;2023-03-01T10:12:56;5.60;90.10
15717;DHT22;7960;50.908;4.204;2023-03-01T10:15:32;5.80;90.00
15717;DHT22;7960;50.908;4.204;2023-03-01T10:18:03;5.60;88.70
15717;DHT22;7960;50.908;4.204;2023-03-01T10:20:43;5.60;88.70
15717;DHT22;7960;50.908;4.204;2023-03-01T10:23:12;5.70;88.10
15717;DHT22;7960;50.908;4.204;2023-03-01T10:25:50;5.70;87.70
15717;DHT22;7960;50.908;4.204;2023-03-01T10:28:25;6.10;87.80
15717;DHT22;7960;50.908;4.204;2023-03-01T10:30:53;6.30;87.40
15717;DHT22;7960;50.908;4.204;2023-03-01T10:33:23;6.60;86.80
15717;DHT22;7960;50.908;4.204;2023-03-01T10:35:51;6.50;85.70
15717;DHT22;7960;50.908;4.204;2023-03-01T10:38:19;6.00;83.90
15717;DHT22;7960;50.908;4.204;2023-03-01T10:40:52;6.00;84.40
15717;DHT22;7960;50.908;4.204;2023-03-01T10:43:19;5.90;84.70
15717;DHT22;7960;50.908;4.204;2023-03-01T10:45:47;6.20;85.60
15717;DHT22;7960;50.908;4.204;2023-03-01T10:48:16;6.30;85.50
15717;DHT22;7960;50.908;4.204;2023-03-01T10:50:45;6.40;85.20
15717;DHT22;7960;50.908;4.204;2023-03-01T10:53:28;6.70;84.70
15717;DHT22;7960;50.908;4.204;2023-03-01T10:56:01;7.10;84.40
15717;DHT22;7960;50.908;4.204;2023-03-01T10:58:30;7.50;83.40
15717;DHT22;7960;50.908;4.204;2023-03-01T11:00:58;7.30;80.90
15717;DHT22;7960;50.908;4.204;2023-03-01T11:03:28;7.10;80.20
15717;DHT22;7960;50.908;4.204;2023-03-01T11:06:08;7.20;80.50
15717;DHT22;7960;50.908;4.204;2023-03-01T11:08:49;7.00;80.30
15717;DHT22;7960;50.908;4.204;2023-03-01T11:11:25;6.90;79.90
15717;DHT22;7960;50.908;4.204;2023-03-01T11:13:58;6.50;79.70
15717;DHT22;7960;50.908;4.204;2023-03-01T11:16:37;6.40;79.80
15717;DHT22;7960;50.908;4.204;2023-03-01T11:19:18;6.70;80.10
15717;DHT22;7960;50.908;4.204;2023-03-01T11:21:55;6.70;79.80
15717;DHT22;7960;50.908;4.204;2023-03-01T11:24:30;6.90;79.80
15717;DHT22;7960;50.908;4.204;2023-03-01T11:27:02;7.20;79.30
15717;DHT22;7960;50.908;4.204;2023-03-01T11:29:39;7.20;78.60
15717;DHT22;7960;50.908;4.204;2023-03-01T11:32:10;7.70;79.10
15717;DHT22;7960;50.908;4.204;2023-03-01T11:34:42;7.60;77.20
15717;DHT22;7960;50.908;4.204;2023-03-01T11:37:21;7.90;78.10
15717;DHT22;7960;50.908;4.204;2023-03-01T11:39:58;8.10;77.40
15717;DHT22;7960;50.908;4.204;2023-03-01T11:42:39;8.10;76.90
15717;DHT22;7960;50.908;4.204;2023-03-01T11:45:11;8.40;77.50
15717;DHT22;7960;50.908;4.204;2023-03-01T11:47:53;8.10;75.50
15717;DHT22;7960;50.908;4.204;2023-03-01T11:50:28;7.80;74.80
15717;DHT22;7960;50.908;4.204;2023-03-01T11:56:00;7.50;75.00
15717;DHT22;7960;50.908;4.204;2023-03-01T11:58:39;7.60;74.80
15717;DHT22;7960;50.908;4.204;2023-03-01T12:01:24;8.00;75.70
15717;DHT22;7960;50.908;4.204;2023-03-01T12:04:21;7.90;74.50
15717;DHT22;7960;50.908;4.204;2023-03-01T12:06:57;7.70;73.00
15717;DHT22;7960;50.908;4.204;2023-03-01T12:09:34;7.70;73.70
15717;DHT22;7960;50.908;4.204;2023-03-01T12:12:23;7.80;73.90
15717;DHT22;7960;50.908;4.204;2023-03-01T12:15:03;8.20;74.40
15717;DHT22;7960;50.908;4.204;2023-03-01T12:17:55;8.60;74.70
15717;DHT22;7960;50.908;4.204;2023-03-01T12:20:28;8.70;74.00
15717;DHT22;7960;50.908;4.204;2023-03-01T12:23:10;8.60;71.30
15717;DHT22;7960;50.908;4.204;2023-03-01T12:25:42;8.50;70.90
15717;DHT22;7960;50.908;4.204;2023-03-01T12:28:38;8.50;71.60
15717;DHT22;7960;50.908;4.204;2023-03-01T12:31:25;8.70;71.70
15717;DHT22;7960;50.908;4.204;2023-03-01T12:34:01;8.90;72.70
15717;DHT22;7960;50.908;4.204;2023-03-01T12:36:45;8.90;71.20
15717;DHT22;7960;50.908;4.204;2023-03-01T12:39:33;9.10;71.20
15717;DHT22;7960;50.908;4.204;2023-03-01T12:42:13;9.60;72.20
15717;DHT22;7960;50.908;4.204;2023-03-01T12:45:02;9.60;70.00
15717;DHT22;7960;50.908;4.204;2023-03-01T12:47:49;9.20;68.80
15717;DHT22;7960;50.908;4.204;2023-03-01T12:50:22;9.30;69.00
15717;DHT22;7960;50.908;4.204;2023-03-01T12:52:52;9.20;68.20
15717;DHT22;7960;50.908;4.204;2023-03-01T12:55:26;9.30;69.40
15717;DHT22;7960;50.908;4.204;2023-03-01T12:58:06;9.80;69.10
15717;DHT22;7960;50.908;4.204;2023-03-01T13:00:44;10.20;66.90
15717;DHT22;7960;50.908;4.204;2023-03-01T13:03:19;9.90;66.00
15717;DHT22;7960;50.908;4.204;2023-03-01T13:06:00;10.10;65.50
15717;DHT22;7960;50.908;4.204;2023-03-01T13:08:33;10.50;65.60
15717;DHT22;7960;50.908;4.204;2023-03-01T13:11:04;10.50;63.70
15717;DHT22;7960;50.908;4.204;2023-03-01T13:13:32;10.20;62.90
15717;DHT22;7960;50.908;4.204;2023-03-01T13:16:20;10.70;64.00
15717;DHT22;7960;50.908;4.204;2023-03-01T13:18:47;10.80;62.70
15717;DHT22;7960;50.908;4.204;2023-03-01T13:21:29;11.20;62.80
15717;DHT22;7960;50.908;4.204;2023-03-01T13:23:56;11.50;61.50
15717;DHT22;7960;50.908;4.204;2023-03-01T13:26:23;11.40;60.60
15717;DHT22;7960;50.908;4.204;2023-03-01T13:28:55;11.30;59.80
15717;DHT22;7960;50.908;4.204;2023-03-01T13:34:51;11.90;59.90
15717;DHT22;7960;50.908;4.204;2023-03-01T13:37:22;12.00;58.20
15717;DHT22;7960;50.908;4.204;2023-03-01T13:39:51;11.30;57.00
15717;DHT22;7960;50.908;4.204;2023-03-01T13:42:37;11.10;58.40
15717;DHT22;7960;50.908;4.204;2023-03-01T13:47:52;11.80;58.50
15717;DHT22;7960;50.908;4.204;2023-03-01T13:50:24;12.20;57.90
15717;DHT22;7960;50.908;4.204;2023-03-01T13:52:54;13.10;57.30
15717;DHT22;7960;50.908;4.204;2023-03-01T13:55:29;12.70;56.20
15717;DHT22;7960;50.908;4.204;2023-03-01T13:57:59;13.30;55.00
15717;DHT22;7960;50.908;4.204;2023-03-01T14:00:37;13.20;53.40
15717;DHT22;7960;50.908;4.204;2023-03-01T14:03:10;13.20;54.10
15717;DHT22;7960;50.908;4.204;2023-03-01T14:05:40;13.40;53.30
15717;DHT22;7960;50.908;4.204;2023-03-01T14:08:20;13.30;52.60
15717;DHT22;7960;50.908;4.204;2023-03-01T14:10:58;13.80;53.80
15717;DHT22;7960;50.908;4.204;2023-03-01T14:13:39;13.10;51.80
15717;DHT22;7960;50.908;4.204;2023-03-01T14:16:20;13.30;52.70
15717;DHT22;7960;50.908;4.204;2023-03-01T14:18:58;13.70;53.00
15717;DHT22;7960;50.908;4.204;2023-03-01T14:21:30;14.20;51.90
15717;DHT22;7960;50.908;4.204;2023-03-01T14:23:58;14.00;51.20
15717;DHT22;7960;50.908;4.204;2023-03-01T14:26:25;14.10;50.80
15717;DHT22;7960;50.908;4.204;2023-03-01T14:28:52;14.30;51.10
15717;DHT22;7960;50.908;4.204;2023-03-01T14:31:46;14.20;51.10
15717;DHT22;7960;50.908;4.204;2023-03-01T14:34:19;13.10;49.90
15717;DHT22;7960;50.908;4.204;2023-03-01T14:36:47;13.30;53.30
15717;DHT22;7960;50.908;4.204;2023-03-01T14:39:19;13.70;52.80
15717;DHT22;7960;50.908;4.204;2023-03-01T14:41:46;13.80;51.90
15717;DHT22;7960;50.908;4.204;2023-03-01T14:44:16;13.80;51.30
15717;DHT22;7960;50.908;4.204;2023-03-01T14:46:46;13.20;50.10
15717;DHT22;7960;50.908;4.204;2023-03-01T14:49:16;13.10;51.00
15717;DHT22;7960;50.908;4.204;2023-03-01T14:51:49;12.70;51.50
15717;DHT22;7960;50.908;4.204;2023-03-01T14:54:24;12.80;51.90
15717;DHT22;7960;50.908;4.204;2023-03-01T14:56:53;13.50;52.10
15717;DHT22;7960;50.908;4.204;2023-03-01T14:59:22;14.00;51.70
15717;DHT22;7960;50.908;4.204;2023-03-01T15:01:50;14.20;51.80
15717;DHT22;7960;50.908;4.204;2023-03-01T15:04:18;14.40;50.90
15717;DHT22;7960;50.908;4.204;2023-03-01T15:06:50;14.70;49.70
15717;DHT22;7960;50.908;4.204;2023-03-01T15:09:17;13.70;48.50
15717;DHT22;7960;50.908;4.204;2023-03-01T15:11:45;12.60;49.10
15717;DHT22;7960;50.908;4.204;2023-03-01T15:14:40;12.80;51.40
15717;DHT22;7960;50.908;4.204;2023-03-01T15:17:21;13.50;51.60
15717;DHT22;7960;50.908;4.204;2023-03-01T15:19:50;13.60;50.40
15717;DHT22;7960;50.908;4.204;2023-03-01T15:22:19;13.60;50.30
15717;DHT22;7960;50.908;4.204;2023-03-01T15:24:48;13.10;51.10
15717;DHT22;7960;50.908;4.204;2023-03-01T15:27:17;13.10;51.80
15717;DHT22;7960;50.908;4.204;2023-03-01T15:29:49;13.30;51.70
15717;DHT22;7960;50.908;4.204;2023-03-01T15:32:28;12.90;51.10
15717;DHT22;7960;50.908;4.204;2023-03-01T15:34:56;12.50;51.70
15717;DHT22;7960;50.908;4.204;2023-03-01T15:37:40;12.50;52.50
15717;DHT22;7960;50.908;4.204;2023-03-01T15:40:20;12.10;52.80
15717;DHT22;7960;50.908;4.204;2023-03-01T15:42:50;12.10;54.00
15717;DHT22;7960;50.908;4.204;2023-03-01T15:45:22;11.60;54.10
15717;DHT22;7960;50.908;4.204;2023-03-01T15:47:52;10.80;55.30
15717;DHT22;7960;50.908;4.204;2023-03-01T15:50:22;10.50;57.30
15717;DHT22;7960;50.908;4.204;2023-03-01T15:52:51;10.10;57.50
15717;DHT22;7960;50.908;4.204;2023-03-01T15:55:21;9.80;59.10
15717;DHT22;7960;50.908;4.204;2023-03-01T15:57:49;9.50;60.30
15717;DHT22;7960;50.908;4.204;2023-03-01T16:00:17;9.60;61.90
15717;DHT22;7960;50.908;4.204;2023-03-01T16:02:44;9.60;61.80
15717;DHT22;7960;50.908;4.204;2023-03-01T16:05:17;10.00;61.90
15717;DHT22;7960;50.908;4.204;2023-03-01T16:07:45;10.50;62.00
15717;DHT22;7960;50.908;4.204;2023-03-01T16:10:13;10.70;60.70
15717;DHT22;7960;50.908;4.204;2023-03-01T16:12:40;10.30;59.00
15717;DHT22;7960;50.908;4.204;2023-03-01T16:15:13;10.00;59.20
15717;DHT22;7960;50.908;4.204;2023-03-01T16:17:41;9.30;61.10
15717;DHT22;7960;50.908;4.204;2023-03-01T16:20:09;8.80;62.90
15717;DHT22;7960;50.908;4.204;2023-03-01T16:22:36;8.70;65.10
15717;DHT22;7960;50.908;4.204;2023-03-01T16:25:04;8.60;65.30
15717;DHT22;7960;50.908;4.204;2023-03-01T16:27:32;8.40;65.70